Carnival Conquest — 3FPQ9 — position and weather

sailwx.info

Track history (hours):
 
Tides and Currents Weather Stations Pressure Air Temp Water Temp Dewpoint Dewpoint Depression Visibility Wind Speed Wind Dir Waves Ship Positions

Carnival Conquest

Operator: Carnival Cruise Lines

Last reported at 2019-Jul-20 13:59 UTC. Time now 2019-Jul-20 14:22 UTC.
Position N 25°47' W 080°10'.

Type: Ship. MMSI: 357657000.

Date/timePositionNaut miles runAvg speedWind from/ knotsBaromVisibWave heightAir tempDewpointWater temp
2019-Jul-20 13:59N 25°47' W 080°10'0 0.0
2019-Jul-20 13:29N 25°47' W 080°10'0 0.0
2019-Jul-20 12:59N 25°47' W 080°10'0 0.0
2019-Jul-20 12:29N 25°47' W 080°10'0 0.0
2019-Jul-20 11:59N 25°47' W 080°10'0 0.0
2019-Jul-20 11:29N 25°47' W 080°10'0 0.0
2019-Jul-20 10:59N 25°47' W 080°10'0 0.0
2019-Jul-20 10:29N 25°47' W 080°10'0 0.0
2019-Jul-20 09:59N 25°47' W 080°10'0 0.0
2019-Jul-20 09:29N 25°47' W 080°10'0 0.0
2019-Jul-20 09:00N 25°47' W 080°10'2 4.4
2019-Jul-20 08:30N 25°46' W 080°08'612.3
2019-Jul-20 08:00N 25°45' W 080°01'713.4
2019-Jul-20 07:31N 25°41' W 079°56'713.7
2019-Jul-20 07:00N 25°36' W 079°51'815.4
2019-Jul-20 06:31N 25°29' W 079°46'714.4
2019-Jul-20 06:01N 25°24' W 079°41'815.0
2019-Jul-20 05:28N 25°16' W 079°40'5712.7
2019-Jul-20 01:00N 24°24' W 080°06'19017.3 080 / 141017.510.8 27.024.328.0
2019-Jul-19 14:00N 23°12' W 083°18'17215.4 120 / 181017.610.8 27.024.328.0
2019-Jul-19 02:48N 21°43' W 085°57'816.9
2019-Jul-19 02:20N 21°37' W 086°03'617.1
2019-Jul-19 02:00N 21°33' W 086°08'4276.6
2019-Jul-19 02:00N 21°30' W 086°06'817.1 100 / 121016.710.8 27.024.328.0
2019-Jul-19 01:30N 21°28' W 086°15'240 9.8
2019-Jul-18 01:00N 17°42' W 087°42'85 3.7 090 / 271014.210.8 27.024.329.0
2019-Jul-17 02:00N 16°30' W 086°54'240 9.6 050 / 351014.110.8 27.024.328.0
2019-Jul-16 01:00N 18°12' W 083°06'106 6.2 170 / 151015.410.8 27.024.329.0
2019-Jul-15 08:00N 19°48' W 082°18'11215.9 080 / 151014.710.8 28.025.329.0
2019-Jul-15 01:00N 20°54' W 083°54'14111.7 050 / 201016.210.8 27.024.328.0
2019-Jul-14 13:00N 23°12' W 083°24'21517.9 110 / 271018.110.8 27.024.328.0
2019-Jul-14 01:00N 24°36' W 079°48'4918.5 090 / 51018.910.8 27.024.328.0
2019-Jul-13 22:19N 25°25' W 079°40'516.1
2019-Jul-13 22:00N 25°30' W 079°41'815.5
2019-Jul-13 21:30N 25°37' W 079°44'816.8
2019-Jul-13 21:00N 25°41' W 079°53'817.0
2019-Jul-13 20:30N 25°45' W 080°01'611.8
2019-Jul-13 20:00N 25°46' W 080°07'3 4.6
2019-Jul-13 19:24N 25°47' W 080°10'0 0.0
2019-Jul-13 18:54N 25°47' W 080°10'0 0.0
2019-Jul-13 18:27N 25°47' W 080°10'0 0.0
2019-Jul-13 17:54N 25°47' W 080°10'0 0.0
2019-Jul-13 17:27N 25°47' W 080°10'0 0.0
2019-Jul-13 16:57N 25°47' W 080°10'0 0.0
2019-Jul-13 16:30N 25°47' W 080°10'0 0.0
2019-Jul-13 15:57N 25°47' W 080°10'0 0.0
2019-Jul-13 15:27N 25°47' W 080°10'0 0.0
2019-Jul-13 15:00N 25°47' W 080°10'0 0.0
2019-Jul-13 14:30N 25°47' W 080°10'0 0.0
2019-Jul-13 14:00N 25°47' W 080°10'0 0.0
2019-Jul-13 13:30N 25°47' W 080°10'0 0.0
2019-Jul-13 13:00N 25°47' W 080°10'0 0.0
2019-Jul-13 12:27N 25°47' W 080°10'0 0.0
2019-Jul-13 12:00N 25°47' W 080°10'0 0.0
2019-Jul-13 11:30N 25°47' W 080°10'0 0.0
2019-Jul-13 11:00N 25°47' W 080°10'1 1.4
2019-Jul-13 10:31N 25°47' W 080°11'3 5.2
2019-Jul-13 10:00N 25°46' W 080°08'611.6
2019-Jul-13 09:30N 25°46' W 080°02'612.1
2019-Jul-13 09:00N 25°42' W 079°57'713.1
2019-Jul-13 08:30N 25°37' W 079°51'713.4
2019-Jul-13 08:00N 25°33' W 079°46'612.4
2019-Jul-13 07:31N 25°28' W 079°42'1319.9
2019-Jul-13 06:52N 25°16' W 079°38'11619.7
2019-Jul-13 01:00N 23°24' W 079°06'24120.1 090 / 251016.410.8 27.024.328.0
2019-Jul-12 13:00N 21°18' W 075°24'24120.1 090 / 211016.210.8 28.026.728.0
2019-Jul-12 01:00N 20°06' W 071°18'27711.5 090 / 211016.310.8 27.024.328.0
2019-Jul-11 01:00N 18°48' W 066°36'2615.4 070 / 211019.010.8 27.024.328.0
2019-Jul-10 23:19N 18°43' W 066°09'619.6
2019-Jul-10 23:00N 18°41' W 066°03'1019.6
2019-Jul-10 22:30N 18°38' W 065°53'1019.3
2019-Jul-10 22:00N 18°35' W 065°44'1019.4
2019-Jul-10 21:31N 18°32' W 065°34'1019.5
2019-Jul-10 21:00N 18°29' W 065°24'1019.4
2019-Jul-10 20:30N 18°26' W 065°14'918.3
2019-Jul-10 20:00N 18°20' W 065°08'917.9
2019-Jul-10 19:31N 18°16' W 064°59'5 8.8
2019-Jul-10 18:56N 18°20' W 064°55'0 0.0
2019-Jul-10 18:14N 18°20' W 064°55'0 0.0
2019-Jul-10 17:44N 18°20' W 064°55'0 0.0
2019-Jul-10 17:26N 18°20' W 064°55'0 0.0
2019-Jul-10 16:56N 18°20' W 064°55'0 0.0
2019-Jul-10 16:26N 18°20' W 064°55'0 0.0
2019-Jul-10 15:44N 18°20' W 064°55'0 0.0
2019-Jul-10 15:26N 18°20' W 064°55'0 0.0
2019-Jul-10 14:56N 18°20' W 064°55'0 0.0
2019-Jul-10 14:26N 18°20' W 064°55'  
Track history (hours):
 
Tides and Currents Weather Stations Pressure Air Temp Water Temp Dewpoint Dewpoint Depression Visibility Wind Speed Wind Dir Waves Ship Positions

Carnival Conquest

Operator: Carnival Cruise Lines

Last reported at 2019-Jul-20 13:59 UTC. Time now 2019-Jul-20 14:22 UTC.
Position N 25°47' W 080°10'.

Type: Ship. MMSI: 357657000.

Date/timePositionNaut miles runAvg speedWind from/ knotsBaromVisibWave heightAir tempDewpointWater temp
2019-Jul-20 13:59N 25°47' W 080°10'0 0.0
2019-Jul-20 13:29N 25°47' W 080°10'0 0.0
2019-Jul-20 12:59N 25°47' W 080°10'0 0.0
2019-Jul-20 12:29N 25°47' W 080°10'0 0.0
2019-Jul-20 11:59N 25°47' W 080°10'0 0.0
2019-Jul-20 11:29N 25°47' W 080°10'0 0.0
2019-Jul-20 10:59N 25°47' W 080°10'0 0.0
2019-Jul-20 10:29N 25°47' W 080°10'0 0.0
2019-Jul-20 09:59N 25°47' W 080°10'0 0.0
2019-Jul-20 09:29N 25°47' W 080°10'0 0.0
2019-Jul-20 09:00N 25°47' W 080°10'2 4.4
2019-Jul-20 08:30N 25°46' W 080°08'612.3
2019-Jul-20 08:00N 25°45' W 080°01'713.4
2019-Jul-20 07:31N 25°41' W 079°56'713.7
2019-Jul-20 07:00N 25°36' W 079°51'815.4
2019-Jul-20 06:31N 25°29' W 079°46'714.4
2019-Jul-20 06:01N 25°24' W 079°41'815.0
2019-Jul-20 05:28N 25°16' W 079°40'5712.7
2019-Jul-20 01:00N 24°24' W 080°06'19017.3 080 / 141017.510.8 27.024.328.0
2019-Jul-19 14:00N 23°12' W 083°18'17215.4 120 / 181017.610.8 27.024.328.0
2019-Jul-19 02:48N 21°43' W 085°57'816.9
2019-Jul-19 02:20N 21°37' W 086°03'617.1
2019-Jul-19 02:00N 21°33' W 086°08'4276.6
2019-Jul-19 02:00N 21°30' W 086°06'817.1 100 / 121016.710.8 27.024.328.0
2019-Jul-19 01:30N 21°28' W 086°15'240 9.8
2019-Jul-18 01:00N 17°42' W 087°42'85 3.7 090 / 271014.210.8 27.024.329.0
2019-Jul-17 02:00N 16°30' W 086°54'240 9.6 050 / 351014.110.8 27.024.328.0
2019-Jul-16 01:00N 18°12' W 083°06'106 6.2 170 / 151015.410.8 27.024.329.0
2019-Jul-15 08:00N 19°48' W 082°18'11215.9 080 / 151014.710.8 28.025.329.0
2019-Jul-15 01:00N 20°54' W 083°54'14111.7 050 / 201016.210.8 27.024.328.0
2019-Jul-14 13:00N 23°12' W 083°24'21517.9 110 / 271018.110.8 27.024.328.0
2019-Jul-14 01:00N 24°36' W 079°48'4918.5 090 / 51018.910.8 27.024.328.0
2019-Jul-13 22:19N 25°25' W 079°40'516.1
2019-Jul-13 22:00N 25°30' W 079°41'815.5
2019-Jul-13 21:30N 25°37' W 079°44'816.8
2019-Jul-13 21:00N 25°41' W 079°53'817.0
2019-Jul-13 20:30N 25°45' W 080°01'611.8
2019-Jul-13 20:00N 25°46' W 080°07'3 4.6
2019-Jul-13 19:24N 25°47' W 080°10'0 0.0
2019-Jul-13 18:54N 25°47' W 080°10'0 0.0
2019-Jul-13 18:27N 25°47' W 080°10'0 0.0
2019-Jul-13 17:54N 25°47' W 080°10'0 0.0
2019-Jul-13 17:27N 25°47' W 080°10'0 0.0
2019-Jul-13 16:57N 25°47' W 080°10'0 0.0
2019-Jul-13 16:30N 25°47' W 080°10'0 0.0
2019-Jul-13 15:57N 25°47' W 080°10'0 0.0
2019-Jul-13 15:27N 25°47' W 080°10'0 0.0
2019-Jul-13 15:00N 25°47' W 080°10'0 0.0
2019-Jul-13 14:30N 25°47' W 080°10'0 0.0
2019-Jul-13 14:00N 25°47' W 080°10'0 0.0
2019-Jul-13 13:30N 25°47' W 080°10'0 0.0
2019-Jul-13 13:00N 25°47' W 080°10'0 0.0
2019-Jul-13 12:27N 25°47' W 080°10'0 0.0
2019-Jul-13 12:00N 25°47' W 080°10'0 0.0
2019-Jul-13 11:30N 25°47' W 080°10'0 0.0
2019-Jul-13 11:00N 25°47' W 080°10'1 1.4
2019-Jul-13 10:31N 25°47' W 080°11'3 5.2
2019-Jul-13 10:00N 25°46' W 080°08'611.6
2019-Jul-13 09:30N 25°46' W 080°02'612.1
2019-Jul-13 09:00N 25°42' W 079°57'713.1
2019-Jul-13 08:30N 25°37' W 079°51'713.4
2019-Jul-13 08:00N 25°33' W 079°46'612.4
2019-Jul-13 07:31N 25°28' W 079°42'1319.9
2019-Jul-13 06:52N 25°16' W 079°38'11619.7
2019-Jul-13 01:00N 23°24' W 079°06'24120.1 090 / 251016.410.8 27.024.328.0
2019-Jul-12 13:00N 21°18' W 075°24'24120.1 090 / 211016.210.8 28.026.728.0
2019-Jul-12 01:00N 20°06' W 071°18'27711.5 090 / 211016.310.8 27.024.328.0
2019-Jul-11 01:00N 18°48' W 066°36'2615.4 070 / 211019.010.8 27.024.328.0
2019-Jul-10 23:19N 18°43' W 066°09'619.6
2019-Jul-10 23:00N 18°41' W 066°03'1019.6
2019-Jul-10 22:30N 18°38' W 065°53'1019.3
2019-Jul-10 22:00N 18°35' W 065°44'1019.4
2019-Jul-10 21:31N 18°32' W 065°34'1019.5
2019-Jul-10 21:00N 18°29' W 065°24'1019.4
2019-Jul-10 20:30N 18°26' W 065°14'918.3
2019-Jul-10 20:00N 18°20' W 065°08'917.9
2019-Jul-10 19:31N 18°16' W 064°59'5 8.8
2019-Jul-10 18:56N 18°20' W 064°55'0 0.0
2019-Jul-10 18:14N 18°20' W 064°55'0 0.0
2019-Jul-10 17:44N 18°20' W 064°55'0 0.0
2019-Jul-10 17:26N 18°20' W 064°55'0 0.0
2019-Jul-10 16:56N 18°20' W 064°55'0 0.0
2019-Jul-10 16:26N 18°20' W 064°55'0 0.0
2019-Jul-10 15:44N 18°20' W 064°55'0 0.0
2019-Jul-10 15:26N 18°20' W 064°55'0 0.0
2019-Jul-10 14:56N 18°20' W 064°55'0 0.0
2019-Jul-10 14:26N 18°20' W 064°55'  

Dump ship's entire track history